sensor_id;sensor_type;location;lat;lon;timestamp;pressure;altitude;pressure_sealevel;temperature;humidity
62103;BME280;48077;48.104;11.702;2023-03-18T00:02:14;95092.00;;;2.27;100.00
62103;BME280;48077;48.104;11.702;2023-03-18T00:04:40;95085.06;;;2.19;100.00
62103;BME280;48077;48.104;11.702;2023-03-18T00:07:04;95075.03;;;2.08;100.00
62103;BME280;48077;48.104;11.702;2023-03-18T00:09:31;95063.66;;;2.01;100.00
62103;BME280;48077;48.104;11.702;2023-03-18T00:11:54;95080.50;;;2.07;100.00
62103;BME280;48077;48.104;11.702;2023-03-18T00:14:20;94993.44;;;1.52;100.00
62103;BME280;48077;48.104;11.702;2023-03-18T00:16:46;95068.88;;;1.94;100.00
62103;BME280;48077;48.104;11.702;2023-03-18T00:19:10;95096.28;;;2.07;100.00
62103;BME280;48077;48.104;11.702;2023-03-18T00:21:37;95098.72;;;2.08;100.00
62103;BME280;48077;48.104;11.702;2023-03-18T00:24:03;95103.56;;;2.05;100.00
62103;BME280;48077;48.104;11.702;2023-03-18T00:26:27;95088.25;;;1.93;100.00
62103;BME280;48077;48.104;11.702;2023-03-18T00:28:51;95090.28;;;1.91;100.00
62103;BME280;48077;48.104;11.702;2023-03-18T00:31:15;95101.25;;;1.95;100.00
62103;BME280;48077;48.104;11.702;2023-03-18T00:33:39;95111.56;;;1.96;100.00
62103;BME280;48077;48.104;11.702;2023-03-18T00:36:06;95119.66;;;1.95;100.00
62103;BME280;48077;48.104;11.702;2023-03-18T00:38:32;95112.78;;;1.94;100.00
62103;BME280;48077;48.104;11.702;2023-03-18T00:40:55;95106.81;;;1.85;100.00
62103;BME280;48077;48.104;11.702;2023-03-18T00:43:27;95120.03;;;1.92;100.00
62103;BME280;48077;48.104;11.702;2023-03-18T00:45:51;95119.19;;;1.91;100.00
62103;BME280;48077;48.104;11.702;2023-03-18T00:48:17;95098.22;;;1.76;100.00
62103;BME280;48077;48.104;11.702;2023-03-18T00:50:41;95101.03;;;1.75;100.00
62103;BME280;48077;48.104;11.702;2023-03-18T00:53:05;95105.53;;;1.81;100.00
62103;BME280;48077;48.104;11.702;2023-03-18T00:55:28;95113.88;;;1.85;100.00
62103;BME280;48077;48.104;11.702;2023-03-18T00:57:52;95120.22;;;1.90;100.00
62103;BME280;48077;48.104;11.702;2023-03-18T01:00:16;95104.13;;;1.78;100.00
62103;BME280;48077;48.104;11.702;2023-03-18T01:02:39;95097.78;;;1.73;100.00
62103;BME280;48077;48.104;11.702;2023-03-18T01:05:03;95103.31;;;1.78;100.00
62103;BME280;48077;48.104;11.702;2023-03-18T01:07:27;95132.75;;;1.88;100.00
62103;BME280;48077;48.104;11.702;2023-03-18T01:09:53;95125.66;;;1.89;100.00
62103;BME280;48077;48.104;11.702;2023-03-18T01:12:16;95128.09;;;1.90;100.00
62103;BME280;48077;48.104;11.702;2023-03-18T01:14:40;95111.38;;;1.76;100.00
62103;BME280;48077;48.104;11.702;2023-03-18T01:17:05;95115.88;;;1.82;100.00
62103;BME280;48077;48.104;11.702;2023-03-18T01:19:28;95121.66;;;1.93;100.00
62103;BME280;48077;48.104;11.702;2023-03-18T01:21:52;95123.47;;;1.92;100.00
62103;BME280;48077;48.104;11.702;2023-03-18T01:24:15;95100.28;;;1.81;100.00
62103;BME280;48077;48.104;11.702;2023-03-18T01:26:39;95121.03;;;1.91;100.00
62103;BME280;48077;48.104;11.702;2023-03-18T01:29:02;95116.16;;;1.88;100.00
62103;BME280;48077;48.104;11.702;2023-03-18T01:31:26;95120.84;;;1.92;100.00
62103;BME280;48077;48.104;11.702;2023-03-18T01:33:51;95116.22;;;1.94;100.00
62103;BME280;48077;48.104;11.702;2023-03-18T01:36:14;95107.63;;;1.86;100.00
62103;BME280;48077;48.104;11.702;2023-03-18T01:38:38;95108.31;;;1.94;100.00
62103;BME280;48077;48.104;11.702;2023-03-18T01:41:03;95094.72;;;1.91;100.00
62103;BME280;48077;48.104;11.702;2023-03-18T01:43:30;95118.09;;;2.00;100.00
62103;BME280;48077;48.104;11.702;2023-03-18T01:45:55;95106.88;;;1.92;100.00
62103;BME280;48077;48.104;11.702;2023-03-18T01:48:26;95114.63;;;2.00;100.00
62103;BME280;48077;48.104;11.702;2023-03-18T01:50:54;95117.25;;;2.00;100.00
62103;BME280;48077;48.104;11.702;2023-03-18T01:53:22;95103.00;;;1.88;100.00
62103;BME280;48077;48.104;11.702;2023-03-18T01:55:46;95092.84;;;1.85;100.00
62103;BME280;48077;48.104;11.702;2023-03-18T01:58:19;95114.38;;;1.95;100.00
62103;BME280;48077;48.104;11.702;2023-03-18T02:00:48;95130.03;;;2.03;100.00
62103;BME280;48077;48.104;11.702;2023-03-18T02:03:11;95120.28;;;1.97;100.00
62103;BME280;48077;48.104;11.702;2023-03-18T02:05:36;95124.72;;;1.96;100.00
62103;BME280;48077;48.104;11.702;2023-03-18T02:08:00;95128.63;;;2.00;100.00
62103;BME280;48077;48.104;11.702;2023-03-18T02:10:27;95116.84;;;1.96;100.00
62103;BME280;48077;48.104;11.702;2023-03-18T02:12:57;95116.84;;;1.96;100.00
62103;BME280;48077;48.104;11.702;2023-03-18T02:15:24;95121.72;;;1.99;100.00
62103;BME280;48077;48.104;11.702;2023-03-18T02:17:58;95130.28;;;2.08;100.00
62103;BME280;48077;48.104;11.702;2023-03-18T02:20:44;95131.13;;;2.09;100.00
62103;BME280;48077;48.104;11.702;2023-03-18T02:23:32;95139.81;;;2.09;100.00
62103;BME280;48077;48.104;11.702;2023-03-18T02:28:57;95138.25;;;2.15;100.00
62103;BME280;48077;48.104;11.702;2023-03-18T02:31:25;95126.84;;;2.08;100.00
62103;BME280;48077;48.104;11.702;2023-03-18T02:33:49;95141.31;;;2.18;100.00
62103;BME280;48077;48.104;11.702;2023-03-18T02:36:22;95138.66;;;2.18;100.00
62103;BME280;48077;48.104;11.702;2023-03-18T02:38:46;95140.75;;;2.23;100.00
62103;BME280;48077;48.104;11.702;2023-03-18T02:41:21;95124.09;;;2.16;100.00
62103;BME280;48077;48.104;11.702;2023-03-18T02:43:45;95138.53;;;2.27;100.00
62103;BME280;48077;48.104;11.702;2023-03-18T02:46:20;95147.91;;;2.29;100.00
62103;BME280;48077;48.104;11.702;2023-03-18T02:48:48;95135.06;;;2.19;100.00
62103;BME280;48077;48.104;11.702;2023-03-18T02:51:13;95142.63;;;2.29;100.00
62103;BME280;48077;48.104;11.702;2023-03-18T02:53:40;95144.44;;;2.29;100.00
62103;BME280;48077;48.104;11.702;2023-03-18T02:56:04;95142.81;;;2.28;100.00
62103;BME280;48077;48.104;11.702;2023-03-18T02:58:29;95157.63;;;2.35;100.00
62103;BME280;48077;48.104;11.702;2023-03-18T03:00:53;95147.69;;;2.31;100.00
62103;BME280;48077;48.104;11.702;2023-03-18T03:03:16;95156.06;;;2.41;100.00
62103;BME280;48077;48.104;11.702;2023-03-18T03:05:40;95152.63;;;2.40;100.00
62103;BME280;48077;48.104;11.702;2023-03-18T03:08:04;95152.47;;;2.42;100.00
62103;BME280;48077;48.104;11.702;2023-03-18T03:10:28;95144.31;;;2.37;100.00
62103;BME280;48077;48.104;11.702;2023-03-18T03:12:51;95160.41;;;2.49;100.00
62103;BME280;48077;48.104;11.702;2023-03-18T03:15:15;95161.84;;;2.51;100.00
62103;BME280;48077;48.104;11.702;2023-03-18T03:17:38;95168.16;;;2.57;100.00
62103;BME280;48077;48.104;11.702;2023-03-18T03:20:05;95162.00;;;2.50;100.00
62103;BME280;48077;48.104;11.702;2023-03-18T03:22:28;95168.97;;;2.57;100.00
62103;BME280;48077;48.104;11.702;2023-03-18T03:24:52;95177.88;;;2.56;100.00
62103;BME280;48077;48.104;11.702;2023-03-18T03:27:16;95167.72;;;2.53;100.00
62103;BME280;48077;48.104;11.702;2023-03-18T03:29:39;95189.28;;;2.63;100.00
62103;BME280;48077;48.104;11.702;2023-03-18T03:32:03;95173.59;;;2.55;100.00
62103;BME280;48077;48.104;11.702;2023-03-18T03:34:26;95197.78;;;2.66;100.00
62103;BME280;48077;48.104;11.702;2023-03-18T03:36:50;95176.88;;;2.57;100.00
62103;BME280;48077;48.104;11.702;2023-03-18T03:39:13;95185.38;;;2.59;100.00
62103;BME280;48077;48.104;11.702;2023-03-18T03:41:37;95172.38;;;2.51;100.00
62103;BME280;48077;48.104;11.702;2023-03-18T03:44:00;95202.44;;;2.63;100.00
62103;BME280;48077;48.104;11.702;2023-03-18T03:46:23;95188.41;;;2.56;100.00
62103;BME280;48077;48.104;11.702;2023-03-18T03:48:47;95189.41;;;2.55;100.00
62103;BME280;48077;48.104;11.702;2023-03-18T03:51:12;95204.00;;;2.58;100.00
62103;BME280;48077;48.104;11.702;2023-03-18T03:53:35;95200.56;;;2.57;100.00
62103;BME280;48077;48.104;11.702;2023-03-18T03:55:59;95195.06;;;2.52;100.00
62103;BME280;48077;48.104;11.702;2023-03-18T03:58:23;95195.88;;;2.53;100.00
62103;BME280;48077;48.104;11.702;2023-03-18T04:00:46;95200.97;;;2.54;100.00
62103;BME280;48077;48.104;11.702;2023-03-18T04:03:09;95192.56;;;2.44;100.00
62103;BME280;48077;48.104;11.702;2023-03-18T04:05:33;95192.34;;;2.46;100.00
62103;BME280;48077;48.104;11.702;2023-03-18T04:07:59;95196.19;;;2.43;100.00
62103;BME280;48077;48.104;11.702;2023-03-18T04:10:23;95181.91;;;2.31;100.00
62103;BME280;48077;48.104;11.702;2023-03-18T04:12:47;95193.69;;;2.35;100.00
62103;BME280;48077;48.104;11.702;2023-03-18T04:15:13;95193.50;;;2.36;100.00
62103;BME280;48077;48.104;11.702;2023-03-18T04:17:39;95206.09;;;2.41;100.00
62103;BME280;48077;48.104;11.702;2023-03-18T04:20:03;95198.31;;;2.33;100.00
62103;BME280;48077;48.104;11.702;2023-03-18T04:22:27;95205.28;;;2.40;100.00
62103;BME280;48077;48.104;11.702;2023-03-18T04:24:51;95210.53;;;2.40;100.00
62103;BME280;48077;48.104;11.702;2023-03-18T04:27:15;95205.22;;;2.34;100.00
62103;BME280;48077;48.104;11.702;2023-03-18T04:29:38;95208.03;;;2.32;100.00
62103;BME280;48077;48.104;11.702;2023-03-18T04:32:02;95206.84;;;2.35;100.00
62103;BME280;48077;48.104;11.702;2023-03-18T04:34:25;95209.66;;;2.33;100.00
62103;BME280;48077;48.104;11.702;2023-03-18T04:36:49;95207.03;;;2.33;100.00
62103;BME280;48077;48.104;11.702;2023-03-18T04:39:13;95207.22;;;2.32;100.00
62103;BME280;48077;48.104;11.702;2023-03-18T04:41:36;95190.94;;;2.21;100.00
62103;BME280;48077;48.104;11.702;2023-03-18T04:43:59;95195.81;;;2.25;100.00
62103;BME280;48077;48.104;11.702;2023-03-18T04:46:23;95195.41;;;2.21;100.00
62103;BME280;48077;48.104;11.702;2023-03-18T04:48:46;95220.41;;;2.32;100.00
62103;BME280;48077;48.104;11.702;2023-03-18T04:51:10;95207.81;;;2.27;100.00
62103;BME280;48077;48.104;11.702;2023-03-18T04:53:35;95204.84;;;2.15;100.00
62103;BME280;48077;48.104;11.702;2023-03-18T04:55:59;95220.56;;;2.30;100.00
62103;BME280;48077;48.104;11.702;2023-03-18T04:58:22;95219.94;;;2.28;100.00
62103;BME280;48077;48.104;11.702;2023-03-18T05:00:46;95189.97;;;2.08;100.00
62103;BME280;48077;48.104;11.702;2023-03-18T05:03:10;95218.06;;;2.22;100.00
62103;BME280;48077;48.104;11.702;2023-03-18T05:05:33;95191.63;;;2.09;100.00
62103;BME280;48077;48.104;11.702;2023-03-18T05:07:57;95198.38;;;2.18;100.00
62103;BME280;48077;48.104;11.702;2023-03-18T05:10:20;95206.34;;;2.25;100.00
62103;BME280;48077;48.104;11.702;2023-03-18T05:12:44;95216.50;;;2.28;100.00
62103;BME280;48077;48.104;11.702;2023-03-18T05:15:08;95211.88;;;2.30;100.00
62103;BME280;48077;48.104;11.702;2023-03-18T05:17:31;95215.13;;;2.32;100.00
62103;BME280;48077;48.104;11.702;2023-03-18T05:19:55;95190.31;;;2.19;100.00
62103;BME280;48077;48.104;11.702;2023-03-18T05:22:19;95207.22;;;2.32;100.00
62103;BME280;48077;48.104;11.702;2023-03-18T05:24:44;95192.88;;;2.13;100.00
62103;BME280;48077;48.104;11.702;2023-03-18T05:27:09;95209.59;;;2.27;100.00
62103;BME280;48077;48.104;11.702;2023-03-18T05:29:36;95224.56;;;2.26;100.00
62103;BME280;48077;48.104;11.702;2023-03-18T05:32:04;95219.06;;;2.21;100.00
62103;BME280;48077;48.104;11.702;2023-03-18T05:34:29;95215.88;;;2.26;100.00
62103;BME280;48077;48.104;11.702;2023-03-18T05:36:52;95215.59;;;2.20;100.00
62103;BME280;48077;48.104;11.702;2023-03-18T05:39:15;95219.88;;;2.21;100.00
62103;BME280;48077;48.104;11.702;2023-03-18T05:41:39;95226.22;;;2.27;100.00
62103;BME280;48077;48.104;11.702;2023-03-18T05:44:03;95228.66;;;2.29;100.00
62103;BME280;48077;48.104;11.702;2023-03-18T05:46:26;95191.19;;;2.05;100.00
62103;BME280;48077;48.104;11.702;2023-03-18T05:48:51;95229.84;;;2.26;100.00
62103;BME280;48077;48.104;11.702;2023-03-18T05:51:14;95190.72;;;2.01;100.00
62103;BME280;48077;48.104;11.702;2023-03-18T05:53:38;95220.06;;;2.20;100.00
62103;BME280;48077;48.104;11.702;2023-03-18T05:56:01;95228.41;;;2.23;100.00
62103;BME280;48077;48.104;11.702;2023-03-18T05:58:24;95218.63;;;2.17;100.00
62103;BME280;48077;48.104;11.702;2023-03-18T06:00:53;95230.03;;;2.25;100.00
62103;BME280;48077;48.104;11.702;2023-03-18T06:03:16;95230.84;;;2.25;100.00
62103;BME280;48077;48.104;11.702;2023-03-18T06:05:40;95231.09;;;2.30;100.00
62103;BME280;48077;48.104;11.702;2023-03-18T06:08:04;95232.97;;;2.36;100.00
62103;BME280;48077;48.104;11.702;2023-03-18T06:10:27;95217.31;;;2.28;100.00
62103;BME280;48077;48.104;11.702;2023-03-18T06:12:51;95236.13;;;2.47;100.00
62103;BME280;48077;48.104;11.702;2023-03-18T06:15:14;95240.81;;;2.51;100.00
62103;BME280;48077;48.104;11.702;2023-03-18T06:17:38;95234.13;;;2.49;100.00
62103;BME280;48077;48.104;11.702;2023-03-18T06:20:06;95210.91;;;2.37;100.00
62103;BME280;48077;48.104;11.702;2023-03-18T06:22:30;95245.16;;;2.59;100.00
62103;BME280;48077;48.104;11.702;2023-03-18T06:24:57;95236.19;;;2.53;100.00
62103;BME280;48077;48.104;11.702;2023-03-18T06:27:20;95209.34;;;2.43;100.00
62103;BME280;48077;48.104;11.702;2023-03-18T06:29:46;95235.06;;;2.62;100.00
62103;BME280;48077;48.104;11.702;2023-03-18T06:32:10;95249.75;;;2.78;100.00
62103;BME280;48077;48.104;11.702;2023-03-18T06:34:34;95231.63;;;2.69;100.00
62103;BME280;48077;48.104;11.702;2023-03-18T06:36:58;95248.63;;;2.88;100.00
62103;BME280;48077;48.104;11.702;2023-03-18T06:39:21;95230.50;;;2.78;100.00
62103;BME280;48077;48.104;11.702;2023-03-18T06:41:45;95216.09;;;2.74;100.00
62103;BME280;48077;48.104;11.702;2023-03-18T06:44:08;95233.19;;;2.84;100.00
62103;BME280;48077;48.104;11.702;2023-03-18T06:46:34;95237.94;;;2.96;100.00
62103;BME280;48077;48.104;11.702;2023-03-18T06:48:58;95236.94;;;2.97;100.00
62103;BME280;48077;48.104;11.702;2023-03-18T06:51:22;95205.09;;;2.92;100.00
62103;BME280;48077;48.104;11.702;2023-03-18T06:53:45;95220.38;;;3.03;100.00
62103;BME280;48077;48.104;11.702;2023-03-18T06:56:09;95231.41;;;3.20;100.00
62103;BME280;48077;48.104;11.702;2023-03-18T06:58:35;95240.41;;;3.32;100.00
62103;BME280;48077;48.104;11.702;2023-03-18T07:00:58;95237.00;;;3.38;100.00
62103;BME280;48077;48.104;11.702;2023-03-18T07:03:22;95242.94;;;3.47;100.00
62103;BME280;48077;48.104;11.702;2023-03-18T07:05:45;95255.38;;;3.60;100.00
62103;BME280;48077;48.104;11.702;2023-03-18T07:08:09;95222.66;;;3.48;100.00
62103;BME280;48077;48.104;11.702;2023-03-18T07:10:33;95232.06;;;3.63;100.00
62103;BME280;48077;48.104;11.702;2023-03-18T07:12:56;95235.53;;;3.71;100.00
62103;BME280;48077;48.104;11.702;2023-03-18T07:15:21;95250.88;;;3.95;100.00
62103;BME280;48077;48.104;11.702;2023-03-18T07:17:45;95221.22;;;3.87;100.00
62103;BME280;48077;48.104;11.702;2023-03-18T07:20:09;95250.97;;;4.15;100.00
62103;BME280;48077;48.104;11.702;2023-03-18T07:22:34;95232.66;;;4.14;100.00
62103;BME280;48077;48.104;11.702;2023-03-18T07:24:57;95247.53;;;4.35;100.00
62103;BME280;48077;48.104;11.702;2023-03-18T07:27:20;95251.03;;;4.49;100.00
62103;BME280;48077;48.104;11.702;2023-03-18T07:29:45;95236.81;;;4.50;100.00
62103;BME280;48077;48.104;11.702;2023-03-18T07:32:09;95250.44;;;4.66;100.00
62103;BME280;48077;48.104;11.702;2023-03-18T07:34:33;95262.25;;;4.91;100.00
62103;BME280;48077;48.104;11.702;2023-03-18T07:36:56;95251.06;;;5.02;99.94
62103;BME280;48077;48.104;11.702;2023-03-18T07:39:21;95240.69;;;5.14;98.88
62103;BME280;48077;48.104;11.702;2023-03-18T07:41:44;95243.72;;;5.31;98.44
62103;BME280;48077;48.104;11.702;2023-03-18T07:44:08;95252.25;;;5.53;97.29
62103;BME280;48077;48.104;11.702;2023-03-18T07:46:31;95244.69;;;5.63;97.60
62103;BME280;48077;48.104;11.702;2023-03-18T07:48:55;95250.16;;;5.75;97.09
62103;BME280;48077;48.104;11.702;2023-03-18T07:51:18;95250.28;;;5.93;96.49
62103;BME280;48077;48.104;11.702;2023-03-18T07:53:42;95253.94;;;6.05;95.91
62103;BME280;48077;48.104;11.702;2023-03-18T07:56:05;95249.22;;;6.21;93.09
62103;BME280;48077;48.104;11.702;2023-03-18T07:58:30;95249.69;;;6.43;91.52
62103;BME280;48077;48.104;11.702;2023-03-18T08:00:53;95244.53;;;6.55;90.46
62103;BME280;48077;48.104;11.702;2023-03-18T08:03:16;95261.13;;;6.75;90.81
62103;BME280;48077;48.104;11.702;2023-03-18T08:05:40;95245.59;;;6.79;90.44
62103;BME280;48077;48.104;11.702;2023-03-18T08:08:03;95234.78;;;6.80;89.38
62103;BME280;48077;48.104;11.702;2023-03-18T08:10:27;95276.75;;;7.15;88.81
62103;BME280;48077;48.104;11.702;2023-03-18T08:12:51;95259.38;;;7.19;88.93
62103;BME280;48077;48.104;11.702;2023-03-18T08:15:15;95267.72;;;7.41;86.47
62103;BME280;48077;48.104;11.702;2023-03-18T08:17:38;95248.34;;;7.41;85.51
62103;BME280;48077;48.104;11.702;2023-03-18T08:20:05;95243.94;;;7.53;84.53
62103;BME280;48077;48.104;11.702;2023-03-18T08:22:28;95263.28;;;7.79;83.18
62103;BME280;48077;48.104;11.702;2023-03-18T08:24:52;95255.28;;;7.85;81.62
62103;BME280;48077;48.104;11.702;2023-03-18T08:27:15;95246.38;;;7.91;80.66
62103;BME280;48077;48.104;11.702;2023-03-18T08:29:39;95268.00;;;8.14;80.63
62103;BME280;48077;48.104;11.702;2023-03-18T08:32:05;95266.81;;;8.28;79.20
62103;BME280;48077;48.104;11.702;2023-03-18T08:34:28;95273.41;;;8.44;77.92
62103;BME280;48077;48.104;11.702;2023-03-18T08:36:51;95275.28;;;8.55;77.69
62103;BME280;48077;48.104;11.702;2023-03-18T08:39:15;95273.50;;;8.67;75.36
62103;BME280;48077;48.104;11.702;2023-03-18T08:41:38;95255.91;;;8.66;74.71
62103;BME280;48077;48.104;11.702;2023-03-18T08:44:02;95264.66;;;8.85;73.42
62103;BME280;48077;48.104;11.702;2023-03-18T08:46:28;95243.13;;;8.87;72.11
62103;BME280;48077;48.104;11.702;2023-03-18T08:48:52;95224.50;;;8.87;71.22
62103;BME280;48077;48.104;11.702;2023-03-18T08:51:17;95250.94;;;9.12;71.08
62103;BME280;48077;48.104;11.702;2023-03-18T08:53:40;95252.34;;;9.26;70.06
62103;BME280;48077;48.104;11.702;2023-03-18T08:56:04;95253.50;;;9.42;70.03
62103;BME280;48077;48.104;11.702;2023-03-18T08:58:29;95246.91;;;9.57;68.71
62103;BME280;48077;48.104;11.702;2023-03-18T09:00:57;95254.44;;;9.71;68.94
62103;BME280;48077;48.104;11.702;2023-03-18T09:03:25;95257.31;;;9.82;67.47
62103;BME280;48077;48.104;11.702;2023-03-18T09:05:48;95230.34;;;9.78;67.25
62103;BME280;48077;48.104;11.702;2023-03-18T09:08:12;95254.25;;;10.02;66.40
62103;BME280;48077;48.104;11.702;2023-03-18T09:10:37;95254.03;;;10.15;64.46
62103;BME280;48077;48.104;11.702;2023-03-18T09:13:01;95248.63;;;10.27;63.65
62103;BME280;48077;48.104;11.702;2023-03-18T09:15:24;95254.91;;;10.44;62.82
62103;BME280;48077;48.104;11.702;2023-03-18T09:17:49;95235.53;;;10.37;61.90
62103;BME280;48077;48.104;11.702;2023-03-18T09:20:14;95252.31;;;10.49;61.15
62103;BME280;48077;48.104;11.702;2023-03-18T09:22:40;95251.78;;;10.64;60.82
62103;BME280;48077;48.104;11.702;2023-03-18T09:25:07;95260.69;;;10.70;60.36
62103;BME280;48077;48.104;11.702;2023-03-18T09:27:31;95234.75;;;10.65;60.21
62103;BME280;48077;48.104;11.702;2023-03-18T09:29:54;95251.19;;;10.91;59.31
62103;BME280;48077;48.104;11.702;2023-03-18T09:32:19;95222.34;;;10.88;58.58
62103;BME280;48077;48.104;11.702;2023-03-18T09:37:37;95167.50;;;10.63;57.71
62103;BME280;48077;48.104;11.702;2023-03-18T09:40:02;95249.38;;;11.25;57.69
62103;BME280;48077;48.104;11.702;2023-03-18T09:42:47;95255.91;;;11.34;57.22
62103;BME280;48077;48.104;11.702;2023-03-18T09:48:25;95253.25;;;11.51;57.35
62103;BME280;48077;48.104;11.702;2023-03-18T09:51:08;95235.44;;;11.57;58.03
62103;BME280;48077;48.104;11.702;2023-03-18T09:53:51;95242.06;;;11.71;57.79
62103;BME280;48077;48.104;11.702;2023-03-18T09:56:21;95234.50;;;11.68;56.96
62103;BME280;48077;48.104;11.702;2023-03-18T10:01:25;95208.78;;;11.62;57.25
62103;BME280;48077;48.104;11.702;2023-03-18T10:06:24;95233.41;;;12.03;56.40
62103;BME280;48077;48.104;11.702;2023-03-18T10:11:34;95253.75;;;12.48;55.50
62103;BME280;48077;48.104;11.702;2023-03-18T10:19:20;95244.56;;;12.93;52.47
62103;BME280;48077;48.104;11.702;2023-03-18T10:22:00;95247.16;;;13.10;52.22
62103;BME280;48077;48.104;11.702;2023-03-18T10:27:41;95230.47;;;13.30;49.98
62103;BME280;48077;48.104;11.702;2023-03-18T10:36:01;95246.69;;;13.88;47.25
62103;BME280;48077;48.104;11.702;2023-03-18T10:38:36;95217.44;;;13.87;47.08
62103;BME280;48077;48.104;11.702;2023-03-18T10:41:01;95230.47;;;14.10;46.15
62103;BME280;48077;48.104;11.702;2023-03-18T10:43:33;95229.72;;;14.30;43.25
62103;BME280;48077;48.104;11.702;2023-03-18T10:46:10;95240.28;;;14.52;43.83
62103;BME280;48077;48.104;11.702;2023-03-18T10:48:55;95230.44;;;14.73;43.46
62103;BME280;48077;48.104;11.702;2023-03-18T10:51:31;95200.09;;;14.78;40.40
62103;BME280;48077;48.104;11.702;2023-03-18T10:54:17;95206.84;;;14.86;41.02
62103;BME280;48077;48.104;11.702;2023-03-18T10:56:42;95208.47;;;15.07;41.47
62103;BME280;48077;48.104;11.702;2023-03-18T10:59:11;95194.50;;;15.15;41.33
62103;BME280;48077;48.104;11.702;2023-03-18T11:01:36;95223.50;;;15.59;39.50
62103;BME280;48077;48.104;11.702;2023-03-18T11:04:04;95214.38;;;15.61;38.67
62103;BME280;48077;48.104;11.702;2023-03-18T11:06:35;95214.63;;;15.80;38.11
62103;BME280;48077;48.104;11.702;2023-03-18T11:09:07;95205.19;;;15.92;38.49
62103;BME280;48077;48.104;11.702;2023-03-18T11:11:32;95214.28;;;16.02;38.22
62103;BME280;48077;48.104;11.702;2023-03-18T11:13:57;95186.66;;;15.81;38.15
62103;BME280;48077;48.104;11.702;2023-03-18T11:16:28;95211.06;;;16.05;37.36
62103;BME280;48077;48.104;11.702;2023-03-18T11:18:52;95204.84;;;16.09;37.96
62103;BME280;48077;48.104;11.702;2023-03-18T11:21:17;95198.59;;;16.29;36.63
62103;BME280;48077;48.104;11.702;2023-03-18T11:23:49;95182.00;;;16.62;36.28
62103;BME280;48077;48.104;11.702;2023-03-18T11:26:47;95195.19;;;17.13;35.68
62103;BME280;48077;48.104;11.702;2023-03-18T11:29:15;95164.78;;;17.07;35.22
62103;BME280;48077;48.104;11.702;2023-03-18T11:34:16;95182.00;;;17.70;34.43
62103;BME280;48077;48.104;11.702;2023-03-18T11:36:41;95156.88;;;17.50;35.15
62103;BME280;48077;48.104;11.702;2023-03-18T11:39:05;95178.88;;;17.87;34.26
62103;BME280;48077;48.104;11.702;2023-03-18T11:41:28;95170.28;;;18.09;33.56
62103;BME280;48077;48.104;11.702;2023-03-18T11:44:04;95159.38;;;18.19;33.70
62103;BME280;48077;48.104;11.702;2023-03-18T11:46:49;95166.88;;;18.22;33.15
62103;BME280;48077;48.104;11.702;2023-03-18T11:49:19;95159.69;;;18.36;33.05
62103;BME280;48077;48.104;11.702;2023-03-18T12:00:20;95116.88;;;18.87;32.73
62103;BME280;48077;48.104;11.702;2023-03-18T12:03:20;95143.09;;;19.52;32.39
62103;BME280;48077;48.104;11.702;2023-03-18T12:06:41;95132.72;;;19.26;32.34
62103;BME280;48077;48.104;11.702;2023-03-18T12:11:39;95128.81;;;19.79;31.14
62103;BME280;48077;48.104;11.702;2023-03-18T12:17:27;95119.34;;;19.49;32.12
62103;BME280;48077;48.104;11.702;2023-03-18T12:23:03;95117.41;;;20.24;31.41
62103;BME280;48077;48.104;11.702;2023-03-18T12:25:59;95112.13;;;20.55;30.42
62103;BME280;48077;48.104;11.702;2023-03-18T12:28:46;95117.91;;;20.26;31.29
62103;BME280;48077;48.104;11.702;2023-03-18T12:37:36;95124.09;;;20.40;31.14
62103;BME280;48077;48.104;11.702;2023-03-18T12:45:18;95097.88;;;20.13;31.89
62103;BME280;48077;48.104;11.702;2023-03-18T12:47:56;95116.19;;;20.30;30.50
62103;BME280;48077;48.104;11.702;2023-03-18T12:50:43;95100.75;;;20.16;30.83
62103;BME280;48077;48.104;11.702;2023-03-18T12:53:21;95113.09;;;19.95;32.56
62103;BME280;48077;48.104;11.702;2023-03-18T12:55:54;95109.34;;;19.49;32.83
62103;BME280;48077;48.104;11.702;2023-03-18T12:58:40;95094.84;;;19.12;33.47
62103;BME280;48077;48.104;11.702;2023-03-18T13:01:17;95094.09;;;18.93;34.42
62103;BME280;48077;48.104;11.702;2023-03-18T13:03:46;95100.38;;;18.88;33.34
62103;BME280;48077;48.104;11.702;2023-03-18T13:08:53;95108.69;;;18.92;34.12
62103;BME280;48077;48.104;11.702;2023-03-18T13:14:25;95097.03;;;19.10;34.60
62103;BME280;48077;48.104;11.702;2023-03-18T13:16:52;95076.06;;;19.35;33.02
62103;BME280;48077;48.104;11.702;2023-03-18T13:19:15;95098.66;;;19.99;32.21
62103;BME280;48077;48.104;11.702;2023-03-18T13:21:47;95081.84;;;19.89;32.54
62103;BME280;48077;48.104;11.702;2023-03-18T13:24:48;95097.09;;;20.35;32.34
62103;BME280;48077;48.104;11.702;2023-03-18T13:27:33;95092.25;;;20.59;32.42
62103;BME280;48077;48.104;11.702;2023-03-18T13:32:39;95096.03;;;20.95;31.58
62103;BME280;48077;48.104;11.702;2023-03-18T13:35:34;95098.38;;;21.10;31.09
62103;BME280;48077;48.104;11.702;2023-03-18T13:38:19;95099.44;;;21.23;30.43
62103;BME280;48077;48.104;11.702;2023-03-18T13:41:15;95103.03;;;21.41;29.68
62103;BME280;48077;48.104;11.702;2023-03-18T13:43:44;95089.34;;;21.15;31.72
62103;BME280;48077;48.104;11.702;2023-03-18T13:46:25;95091.16;;;21.28;30.65
62103;BME280;48077;48.104;11.702;2023-03-18T13:48:55;95092.69;;;21.20;30.10
62103;BME280;48077;48.104;11.702;2023-03-18T13:54:03;95065.28;;;20.99;31.47
62103;BME280;48077;48.104;11.702;2023-03-18T14:01:58;95071.44;;;21.68;30.28
62103;BME280;48077;48.104;11.702;2023-03-18T14:04:51;95057.13;;;21.45;31.73
62103;BME280;48077;48.104;11.702;2023-03-18T14:07:17;95060.53;;;21.28;31.77
62103;BME280;48077;48.104;11.702;2023-03-18T14:15:00;95061.31;;;21.28;31.81